Time;durP1;ratioP1;P1;durP2;ratioP2;P2;SDS_P1;SDS_P2;PMS_P1;PMS_P2;Temp;Humidity;BMP_temperature;BMP_pressure;BME280_temperature;BME280_humidity;BME280_pressure;Samples;Min_cycle;Max_cycle;Signal;HPM_P1;HPM_P2
2023/08/06 00:00:58;;;;;;;0.20;0.20;;;;;;;22.02;67.70;99514.88;4827668;29;20118;-80
2023/08/06 00:03:26;;;;;;;0.20;0.20;;;;;;;22.01;67.77;99503.06;4802982;29;20084;-78
2023/08/06 00:05:53;;;;;;;0.20;0.20;;;;;;;22.01;67.38;99507.75;4806152;29;20055;-80
2023/08/06 00:08:20;;;;;;;0.20;0.20;;;;;;;21.95;67.35;99498.81;4805327;29;20054;-80
2023/08/06 00:10:48;;;;;;;0.20;0.20;;;;;;;21.96;67.46;99511.44;4804148;29;20459;-79
2023/08/06 00:13:16;;;;;;;0.20;0.20;;;;;;;21.93;67.49;99508.50;4805056;29;20055;-79
2023/08/06 00:15:43;;;;;;;0.20;0.20;;;;;;;21.89;67.93;99513.78;4804293;29;20047;-79
2023/08/06 00:18:10;;;;;;;0.20;0.20;;;;;;;21.82;67.71;99511.44;4805065;29;20054;-79
2023/08/06 00:20:41;;;;;;;0.20;0.20;;;;;;;21.82;67.90;99510.63;4805537;29;20059;-80
2023/08/06 00:23:08;;;;;;;0.20;0.20;;;;;;;21.83;67.89;99515.81;4806895;29;20059;-80
2023/08/06 00:25:36;;;;;;;0.20;0.20;;;;;;;21.81;67.94;99522.75;4805335;29;20058;-80
2023/08/06 00:28:03;;;;;;;0.20;0.20;;;;;;;21.76;68.16;99517.34;4787399;29;20054;-79
2023/08/06 00:30:32;;;;;;;0.20;0.20;;;;;;;21.74;68.14;99516.84;4804933;29;20108;-80
2023/08/06 00:32:59;;;;;;;0.20;0.20;;;;;;;21.72;68.50;99525.38;4759046;29;20062;-80
2023/08/06 00:35:26;;;;;;;0.20;0.20;;;;;;;21.65;68.90;99522.25;4805005;29;20055;-79
2023/08/06 00:37:53;;;;;;;0.20;0.20;;;;;;;21.60;69.00;99531.41;4803860;29;20058;-80
2023/08/06 00:40:22;;;;;;;0.20;0.20;;;;;;;21.59;69.12;99524.25;4802798;29;20500;-79
2023/08/06 00:42:49;;;;;;;0.20;0.20;;;;;;;21.59;69.23;99524.25;4797761;29;20538;-80
2023/08/06 00:45:16;;;;;;;0.20;0.20;;;;;;;21.61;69.00;99527.53;4804625;29;20088;-79
2023/08/06 00:47:45;;;;;;;0.20;0.20;;;;;;;21.60;69.06;99519.59;4804790;29;20051;-79
2023/08/06 00:50:13;;;;;;;0.20;0.20;;;;;;;21.64;69.27;99515.91;4801912;29;20078;-80
2023/08/06 00:52:40;;;;;;;0.20;0.20;;;;;;;21.63;69.50;99516.25;4804612;29;20511;-79
2023/08/06 00:55:07;;;;;;;0.20;0.20;;;;;;;21.62;69.05;99512.69;4804428;29;20458;-81
2023/08/06 00:57:35;;;;;;;0.20;0.20;;;;;;;21.57;69.25;99518.28;4789898;29;20141;-80
2023/08/06 01:00:04;;;;;;;0.20;0.20;;;;;;;21.52;70.01;99523.88;4795694;29;20535;-79
2023/08/06 01:02:31;;;;;;;0.20;0.20;;;;;;;21.47;70.29;99521.22;4810223;29;20061;-80
2023/08/06 01:04:58;;;;;;;0.20;0.20;;;;;;;21.46;70.70;99521.53;4803330;29;20535;-79
2023/08/06 01:07:38;;;;;;;0.20;0.20;;;;;;;21.42;71.36;99526.78;4804545;29;20058;-79
2023/08/06 01:10:26;;;;;;;0.20;0.20;;;;;;;21.38;71.34;99521.09;4799098;29;20074;-80
2023/08/06 01:13:12;;;;;;;0.20;0.20;;;;;;;21.40;71.33;99523.56;4805198;29;20145;-79
2023/08/06 01:15:43;;;;;;;0.20;0.20;;;;;;;21.41;70.61;99519.69;4789230;29;20055;-79
2023/08/06 01:18:11;;;;;;;0.20;0.20;;;;;;;21.43;70.49;99525.69;4774417;29;20607;-80
2023/08/06 01:20:38;;;;;;;0.20;0.20;;;;;;;21.42;70.82;99524.88;4805190;29;20066;-80
2023/08/06 01:23:05;;;;;;;0.20;0.20;;;;;;;21.40;70.37;99513.38;4803699;29;20079;-80
2023/08/06 01:25:51;;;;;;;0.20;0.20;;;;;;;21.46;70.15;99519.59;4803672;29;20058;-79
2023/08/06 01:28:36;;;;;;;0.20;0.20;;;;;;;21.42;71.31;99522.13;4788915;29;20063;-79
2023/08/06 01:31:06;;;;;;;0.20;0.20;;;;;;;21.38;71.02;99517.53;4789169;29;20095;-79
2023/08/06 01:33:34;;;;;;;0.20;0.20;;;;;;;21.40;70.50;99518.06;4804104;29;20487;-79
2023/08/06 01:36:02;;;;;;;0.20;0.20;;;;;;;21.43;70.71;99520.19;4788486;29;20589;-79
2023/08/06 01:38:31;;;;;;;0.20;0.20;;;;;;;21.49;70.38;99527.22;4788328;29;20050;-79
2023/08/06 01:40:58;;;;;;;0.20;0.20;;;;;;;21.54;70.18;99529.84;4818791;29;20054;-80
2023/08/06 01:43:25;;;;;;;0.20;0.20;;;;;;;21.59;69.94;99535.25;4804605;29;20165;-80
2023/08/06 01:45:53;;;;;;;0.20;0.20;;;;;;;21.57;70.86;99543.00;4766460;30;20054;-80
2023/08/06 01:48:20;;;;;;;0.20;0.20;;;;;;;21.47;71.36;99548.69;4784786;30;20055;-79
2023/08/06 01:50:47;;;;;;;0.20;0.20;;;;;;;21.39;72.02;99544.69;4785613;30;20129;-80
2023/08/06 01:53:14;;;;;;;0.20;0.20;;;;;;;21.30;72.81;99542.94;4769283;30;20059;-79
2023/08/06 01:55:41;;;;;;;0.20;0.20;;;;;;;21.19;73.55;99542.28;4784211;29;20142;-80
2023/08/06 01:58:08;;;;;;;0.20;0.20;;;;;;;21.09;74.12;99537.81;4769170;30;20056;-80
2023/08/06 02:00:35;;;;;;;0.20;0.20;;;;;;;21.18;73.56;99541.47;4769073;30;20055;-80
2023/08/06 02:03:02;;;;;;;0.20;0.20;;;;;;;21.20;73.40;99550.22;4769419;30;20079;-79
2023/08/06 02:05:29;;;;;;;0.20;0.20;;;;;;;21.20;73.42;99547.47;4783967;30;20062;-80
2023/08/06 02:07:58;;;;;;;0.20;0.20;;;;;;;21.23;72.90;99553.50;4784198;30;20104;-79
2023/08/06 02:10:25;;;;;;;0.20;0.20;;;;;;;21.22;72.52;99547.19;4754150;30;20219;-80
2023/08/06 02:12:52;;;;;;;0.20;0.20;;;;;;;21.27;72.71;99543.53;4769266;30;20051;-79
2023/08/06 02:15:19;;;;;;;0.20;0.20;;;;;;;21.34;73.18;99549.44;4768970;30;20096;-81
2023/08/06 02:17:46;;;;;;;0.20;0.20;;;;;;;21.36;73.17;99548.00;4770318;29;20065;-79
2023/08/06 02:20:33;;;;;;;0.20;0.20;;;;;;;21.30;72.98;99551.19;4790260;29;20526;-79
2023/08/06 02:23:01;;;;;;;0.20;0.20;;;;;;;21.29;72.76;99553.09;4804124;29;20082;-80
2023/08/06 02:25:28;;;;;;;0.20;0.20;;;;;;;21.34;72.52;99553.00;4803879;29;20434;-80
2023/08/06 02:28:01;;;;;;;0.20;0.20;;;;;;;21.32;72.76;99558.00;4804284;29;20137;-79
2023/08/06 02:30:28;;;;;;;0.20;0.20;;;;;;;21.25;72.80;99567.72;4787709;29;20051;-79
2023/08/06 02:32:55;;;;;;;0.20;0.20;;;;;;;21.31;72.48;99572.00;4804110;29;20050;-78
2023/08/06 02:35:22;;;;;;;0.20;0.20;;;;;;;21.46;72.02;99565.47;4787517;29;20055;-79
2023/08/06 02:37:49;;;;;;;0.20;0.20;;;;;;;21.55;71.98;99566.41;4804080;29;20061;-80
2023/08/06 02:40:16;;;;;;;0.20;0.20;;;;;;;21.60;71.75;99566.28;4807459;29;20062;-80
2023/08/06 02:42:45;;;;;;;0.20;0.20;;;;;;;21.61;71.06;99560.47;4804354;29;20050;-79
2023/08/06 02:45:12;;;;;;;0.20;0.20;;;;;;;21.67;70.93;99574.13;4808387;29;20085;-78
2023/08/06 02:47:39;;;;;;;0.20;0.20;;;;;;;21.67;71.14;99571.38;4807851;29;20656;-79
2023/08/06 02:50:06;;;;;;;0.20;0.20;;;;;;;21.65;71.41;99566.19;4819951;29;20431;-80
2023/08/06 02:52:33;;;;;;;0.30;0.30;;;;;;;21.65;71.55;99563.44;4829694;29;20055;-78
2023/08/06 02:55:02;;;;;;;0.20;0.20;;;;;;;21.66;71.36;99556.03;4802174;29;20066;-79
2023/08/06 02:57:31;;;;;;;0.20;0.20;;;;;;;21.68;71.20;99553.78;4806565;29;20071;-78
2023/08/06 02:59:58;;;;;;;0.20;0.20;;;;;;;21.72;71.25;99560.28;4798806;29;20055;-78
2023/08/06 03:02:25;;;;;;;0.20;0.20;;;;;;;21.79;71.14;99552.44;4824233;29;20058;-78
2023/08/06 03:05:01;;;;;;;0.20;0.20;;;;;;;21.82;71.28;99555.38;4809882;29;20123;-79
2023/08/06 03:07:36;;;;;;;0.20;0.20;;;;;;;21.89;70.96;99554.19;4824373;29;20103;-78
2023/08/06 03:10:10;;;;;;;0.20;0.20;;;;;;;21.92;71.14;99553.56;4809172;29;20198;-79
2023/08/06 03:12:38;;;;;;;0.20;0.20;;;;;;;22.01;70.42;99560.78;4826083;29;20054;-79
2023/08/06 03:15:06;;;;;;;0.20;0.20;;;;;;;22.04;70.62;99562.91;4824579;29;20054;-79
2023/08/06 03:17:33;;;;;;;0.20;0.20;;;;;;;22.12;71.02;99563.31;4794219;29;20140;-80
2023/08/06 03:20:02;;;;;;;0.20;0.20;;;;;;;22.15;70.97;99558.00;4808996;29;20058;-79
2023/08/06 03:22:29;;;;;;;0.20;0.20;;;;;;;22.21;70.83;99559.56;4808715;29;20058;-77
2023/08/06 03:24:57;;;;;;;0.20;0.20;;;;;;;;;;4808865;29;20054;-79
2023/08/06 03:27:25;;;;;;;0.20;0.20;;;;;;;22.34;70.03;99560.66;4808646;29;20537;-78
2023/08/06 03:29:52;;;;;;;0.20;0.20;;;;;;;22.40;70.22;99561.34;4808785;29;20493;-79
2023/08/06 03:32:22;;;;;;;0.20;0.20;;;;;;;22.50;68.16;99574.88;4808659;29;20110;-80
2023/08/06 03:34:50;;;;;;;0.20;0.20;;;;;;;22.58;67.67;99565.88;4823821;29;20061;-78
2023/08/06 03:37:17;;;;;;;0.20;0.20;;;;;;;22.68;68.85;99567.56;4808470;29;20220;-79
2023/08/06 03:39:44;;;;;;;0.20;0.20;;;;;;;22.77;67.66;99557.47;4825008;29;20080;-79
2023/08/06 03:42:11;;;;;;;0.20;0.20;;;;;;;22.89;65.93;99549.47;4826359;29;20062;-80
2023/08/06 03:44:39;;;;;;;0.20;0.20;;;;;;;22.94;65.74;99545.78;4826739;29;20084;-80
2023/08/06 03:47:08;;;;;;;0.20;0.20;;;;;;;23.07;65.00;99555.13;4810338;29;20047;-78
2023/08/06 03:49:36;;;;;;;0.20;0.20;;;;;;;23.14;64.64;99558.22;4808657;29;20054;-79
2023/08/06 03:52:05;;;;;;;0.20;0.20;;;;;;;23.24;65.24;99559.91;4808256;29;20066;-79
2023/08/06 03:54:32;;;;;;;0.20;0.20;;;;;;;23.33;65.14;99556.06;4823357;29;20062;-79
2023/08/06 03:56:59;;;;;;;0.20;0.20;;;;;;;23.44;65.43;99562.13;4823454;29;20496;-79
2023/08/06 03:59:26;;;;;;;0.20;0.20;;;;;;;23.52;64.29;99558.59;4814308;29;20062;-79
2023/08/06 04:01:55;;;;;;;0.20;0.20;;;;;;;23.61;63.72;99557.81;4841219;29;20118;-79
2023/08/06 04:04:23;;;;;;;0.20;0.20;;;;;;;23.66;63.94;99554.94;4825749;29;20517;-80
2023/08/06 04:06:50;;;;;;;0.20;0.20;;;;;;;23.65;64.51;99561.56;4842656;29;20050;-79
2023/08/06 04:09:17;;;;;;;0.20;0.20;;;;;;;23.75;63.95;99567.66;4825910;29;20065;-77
2023/08/06 04:11:44;;;;;;;0.20;0.20;;;;;;;23.90;63.04;99565.56;4842751;29;20058;-78
2023/08/06 04:14:11;;;;;;;0.20;0.20;;;;;;;23.92;62.05;99557.78;4841678;29;20452;-79
2023/08/06 04:16:38;;;;;;;0.20;0.20;;;;;;;23.87;62.69;99557.94;4810792;29;20516;-80
2023/08/06 04:19:05;;;;;;;0.20;0.20;;;;;;;23.85;62.01;99552.75;4842416;29;20073;-80
2023/08/06 04:21:32;;;;;;;0.20;0.20;;;;;;;23.93;62.34;99551.97;4825551;29;20058;-79
2023/08/06 04:24:00;;;;;;;0.20;0.20;;;;;;;23.99;62.47;99547.91;4825955;29;20135;-79
2023/08/06 04:26:27;;;;;;;0.20;0.20;;;;;;;24.04;62.25;99546.97;4825810;29;20084;-79
2023/08/06 04:29:00;;;;;;;0.20;0.20;;;;;;;24.10;61.60;99553.94;4840930;29;20081;-81
2023/08/06 04:31:45;;;;;;;0.20;0.20;;;;;;;24.19;60.66;99543.75;4828241;29;20077;-80
2023/08/06 04:34:14;;;;;;;0.20;0.20;;;;;;;24.23;60.72;99541.97;4807609;29;20678;-80
2023/08/06 04:36:41;;;;;;;0.20;0.20;;;;;;;24.39;60.36;99544.28;4825179;29;20063;-79
2023/08/06 04:39:09;;;;;;;0.20;0.20;;;;;;;24.53;59.79;99541.38;4794394;29;20054;-81
2023/08/06 04:41:36;;;;;;;0.20;0.20;;;;;;;24.58;59.28;99546.72;4824246;29;20566;-78
2023/08/06 04:44:04;;;;;;;0.20;0.20;;;;;;;24.60;59.28;99544.47;4824332;29;20552;-80
2023/08/06 04:46:31;;;;;;;0.20;0.20;;;;;;;24.72;60.00;99552.91;4825282;29;20059;-78
2023/08/06 04:48:58;;;;;;;0.20;0.20;;;;;;;24.76;58.93;99544.75;4843077;29;20054;-81
2023/08/06 04:51:25;;;;;;;0.20;0.20;;;;;;;24.87;58.92;99548.84;4842561;29;20102;-79
2023/08/06 04:53:52;;;;;;;0.20;0.20;;;;;;;25.00;59.05;99547.81;4842697;29;20064;-82
2023/08/06 04:56:19;;;;;;;0.20;0.20;;;;;;;25.17;59.53;99552.53;4841774;29;20058;-80
2023/08/06 04:58:46;;;;;;;0.20;0.20;;;;;;;25.25;58.57;99540.66;4842816;29;20094;-80
2023/08/06 05:01:13;;;;;;;0.20;0.20;;;;;;;25.38;57.78;99546.31;4843003;29;20058;-82
2023/08/06 05:03:40;;;;;;;0.20;0.20;;;;;;;25.45;57.44;99544.66;4827663;29;20061;-81
2023/08/06 05:06:08;;;;;;;0.20;0.20;;;;;;;25.44;58.12;99543.03;4842545;29;20080;-80
2023/08/06 05:08:35;;;;;;;0.20;0.20;;;;;;;25.51;57.99;99537.78;4825843;29;20060;-79
2023/08/06 05:11:02;;;;;;;0.10;0.10;;;;;;;25.53;57.92;99545.75;4825916;29;20049;-83
2023/08/06 05:13:29;;;;;;;0.20;0.20;;;;;;;25.62;57.48;99552.03;4841456;29;20445;-80
2023/08/06 05:15:56;;;;;;;0.20;0.20;;;;;;;25.75;57.62;99533.66;4842203;29;20087;-81
2023/08/06 05:18:23;;;;;;;0.20;0.20;;;;;;;25.89;56.07;99531.47;4836276;29;20082;-80
2023/08/06 05:20:50;;;;;;;0.20;0.20;;;;;;;25.94;56.95;99536.81;4831054;29;20141;-80
2023/08/06 05:23:17;;;;;;;0.20;0.20;;;;;;;26.04;56.33;99532.84;4824616;29;20057;-80
2023/08/06 05:25:45;;;;;;;0.20;0.20;;;;;;;26.13;55.19;99530.84;4818007;29;20046;-81
2023/08/06 05:28:12;;;;;;;0.20;0.20;;;;;;;26.05;55.13;99536.41;4806903;29;20072;-80
2023/08/06 05:30:40;;;;;;;0.20;0.20;;;;;;;26.19;55.70;99536.19;4820597;29;20054;-80
2023/08/06 05:33:07;;;;;;;0.20;0.20;;;;;;;26.38;55.25;99530.97;4820194;29;20049;-80
2023/08/06 05:35:34;;;;;;;0.20;0.20;;;;;;;26.50;54.26;99535.78;4820461;29;20118;-77
2023/08/06 05:38:01;;;;;;;0.20;0.20;;;;;;;26.55;53.79;99536.41;4820203;29;20174;-79
2023/08/06 05:40:29;;;;;;;0.20;0.20;;;;;;;26.58;54.55;99527.41;4818131;29;20107;-79
2023/08/06 05:42:56;;;;;;;0.10;0.10;;;;;;;26.73;54.71;99528.75;4808088;29;20453;-79
2023/08/06 05:45:25;;;;;;;0.20;0.20;;;;;;;26.84;55.16;99528.31;4820456;29;20053;-81
2023/08/06 05:47:58;;;;;;;0.10;0.10;;;;;;;26.90;53.67;99529.75;4821540;29;20057;-81
2023/08/06 05:50:25;;;;;;;0.10;0.10;;;;;;;26.96;53.09;99531.16;4821883;29;20081;-81
2023/08/06 05:52:55;;;;;;;0.20;0.20;;;;;;;26.83;53.01;99527.53;4803688;29;20054;-81
2023/08/06 05:55:25;;;;;;;0.20;0.20;;;;;;;26.84;54.31;99520.84;4821296;29;20154;-80
2023/08/06 05:57:55;;;;;;;0.20;0.20;;;;;;;26.99;53.94;99524.91;4821985;29;20089;-80
2023/08/06 06:00:25;;;;;;;0.20;0.20;;;;;;;27.00;54.76;99523.78;4807048;29;20055;-81
2023/08/06 06:02:52;;;;;;;0.10;0.10;;;;;;;27.20;53.26;99525.72;4784548;29;20082;-81
2023/08/06 06:05:19;;;;;;;0.10;0.10;;;;;;;27.33;53.46;99521.00;4802149;29;20422;-80
2023/08/06 06:07:46;;;;;;;0.15;0.15;;;;;;;27.42;52.49;99521.72;4804368;29;20082;-79
2023/08/06 06:10:13;;;;;;;0.20;0.20;;;;;;;27.48;51.93;99524.25;4800115;29;20112;-81
2023/08/06 06:12:41;;;;;;;0.20;0.20;;;;;;;27.60;53.02;99521.47;4796303;29;20208;-83
2023/08/06 06:15:08;;;;;;;0.10;0.10;;;;;;;27.76;52.26;99524.38;4799856;29;20051;-80
2023/08/06 06:17:35;;;;;;;0.10;0.10;;;;;;;27.69;51.38;99524.94;4783314;29;20078;-81
2023/08/06 06:20:04;;;;;;;0.20;0.20;;;;;;;27.73;51.62;99514.00;4809731;29;20050;-80
2023/08/06 06:22:31;;;;;;;0.20;0.20;;;;;;;27.86;52.46;99513.66;4808674;29;20119;-81
2023/08/06 06:24:58;;;;;;;0.10;0.10;;;;;;;27.91;51.71;99509.03;4793845;29;20092;-79
2023/08/06 06:27:25;;;;;;;0.10;0.10;;;;;;;27.99;51.07;99517.22;4794593;29;20054;-81
2023/08/06 06:29:54;;;;;;;0.20;0.20;;;;;;;28.10;50.88;99512.00;4799795;29;20146;-79
2023/08/06 06:32:22;;;;;;;0.10;0.10;;;;;;;28.12;50.49;99508.88;4811966;29;20512;-79
2023/08/06 06:34:49;;;;;;;0.10;0.10;;;;;;;28.24;50.48;99514.41;4807682;29;20059;-78
2023/08/06 06:37:19;;;;;;;0.10;0.10;;;;;;;28.23;50.23;99507.22;4808175;29;20062;-81
2023/08/06 06:39:49;;;;;;;0.10;0.10;;;;;;;28.20;50.32;99500.41;4785565;30;20150;-79
2023/08/06 06:42:18;;;;;;;0.10;0.10;;;;;;;28.35;49.79;99509.16;4799869;29;20584;-82
2023/08/06 06:44:50;;;;;;;0.20;0.20;;;;;;;28.36;50.34;99489.41;4798476;29;20050;-80
2023/08/06 06:47:17;;;;;;;0.20;0.20;;;;;;;28.45;50.38;99498.41;4805869;29;20062;-79
2023/08/06 06:49:47;;;;;;;0.20;0.20;;;;;;;28.30;49.85;99501.88;4803348;29;20055;-81
2023/08/06 06:52:24;;;;;;;0.15;0.15;;;;;;;28.36;49.49;99502.44;4803757;29;20063;-81
2023/08/06 06:54:54;;;;;;;0.20;0.20;;;;;;;28.38;49.32;99502.91;4803117;29;20508;-82
2023/08/06 06:57:21;;;;;;;0.10;0.10;;;;;;;28.57;49.76;99510.63;4803801;29;20062;-83
2023/08/06 06:59:48;;;;;;;0.10;0.10;;;;;;;28.79;49.13;99501.75;4814374;29;20059;-80
2023/08/06 07:02:15;;;;;;;0.10;0.10;;;;;;;28.89;48.14;99498.47;4810488;29;20092;-81
2023/08/06 07:04:44;;;;;;;0.20;0.20;;;;;;;28.83;48.22;99480.41;4807600;29;20108;-82
2023/08/06 07:07:14;;;;;;;0.10;0.10;;;;;;;28.98;48.71;99501.06;4806663;29;20097;-82
2023/08/06 07:09:41;;;;;;;0.10;0.10;;;;;;;29.07;48.85;99495.38;4810566;29;20103;-79
2023/08/06 07:12:09;;;;;;;0.20;0.20;;;;;;;29.17;48.89;99489.31;4811510;29;20051;-80
2023/08/06 07:14:36;;;;;;;0.10;0.10;;;;;;;29.23;49.14;99479.50;4811497;29;20057;-80
2023/08/06 07:17:04;;;;;;;0.17;0.17;;;;;;;29.27;49.20;99493.50;4812699;29;20066;-79
2023/08/06 07:19:31;;;;;;;0.10;0.10;;;;;;;29.35;49.09;99487.78;4812931;29;20066;-80
2023/08/06 07:21:59;;;;;;;0.10;0.10;;;;;;;29.31;47.03;99486.88;4810095;29;20485;-80
2023/08/06 07:24:26;;;;;;;0.10;0.10;;;;;;;29.25;47.65;99474.41;4805052;29;20055;-80
2023/08/06 07:26:56;;;;;;;0.10;0.10;;;;;;;29.42;47.51;99481.56;4809952;29;20108;-81
2023/08/06 07:29:23;;;;;;;0.10;0.10;;;;;;;29.57;47.11;99486.34;4809351;29;20046;-79
2023/08/06 07:31:53;;;;;;;0.10;0.10;;;;;;;29.62;47.43;99490.78;4812289;29;20174;-79
2023/08/06 07:34:21;;;;;;;0.10;0.10;;;;;;;29.75;47.20;99485.97;4814327;29;20048;-81
2023/08/06 07:36:48;;;;;;;0.10;0.10;;;;;;;29.58;47.53;99482.38;4806921;29;20423;-80
2023/08/06 07:39:18;;;;;;;0.10;0.10;;;;;;;29.83;48.43;99481.38;4808130;29;20412;-79
2023/08/06 07:41:45;;;;;;;0.10;0.10;;;;;;;30.18;46.94;99495.28;4790661;29;20062;-81
2023/08/06 07:44:13;;;;;;;0.10;0.10;;;;;;;30.33;46.57;99482.50;4804820;29;20137;-81
2023/08/06 07:46:40;;;;;;;0.10;0.10;;;;;;;30.38;45.58;99487.78;4807634;29;20054;-81
2023/08/06 07:49:08;;;;;;;0.20;0.20;;;;;;;30.50;45.12;99482.06;4808558;29;20100;-80
2023/08/06 07:51:36;;;;;;;0.20;0.20;;;;;;;30.48;44.97;99478.03;4805368;29;20580;-80
2023/08/06 07:54:08;;;;;;;0.10;0.10;;;;;;;30.66;45.22;99488.38;4805156;29;20051;-82
2023/08/06 07:56:36;;;;;;;0.10;0.10;;;;;;;30.75;44.82;99484.53;4805880;29;20055;-81
2023/08/06 07:59:04;;;;;;;0.10;0.10;;;;;;;30.69;44.84;99481.25;4818917;29;20153;-80
2023/08/06 08:01:32;;;;;;;0.20;0.20;;;;;;;30.81;45.46;99471.91;4811106;29;20587;-79
2023/08/06 08:03:59;;;;;;;0.20;0.20;;;;;;;31.00;45.04;99477.47;4815583;29;20404;-79
2023/08/06 08:06:26;;;;;;;0.20;0.20;;;;;;;31.04;44.62;99475.56;4810926;29;20069;-82
2023/08/06 08:08:55;;;;;;;0.20;0.20;;;;;;;31.13;44.24;99494.03;4813678;29;20142;-80
2023/08/06 08:11:23;;;;;;;0.20;0.20;;;;;;;31.04;43.37;99475.56;4811599;29;20064;-80
2023/08/06 08:13:51;;;;;;;0.20;0.20;;;;;;;30.99;43.00;99478.66;4814262;29;20497;-82
2023/08/06 08:16:18;;;;;;;0.20;0.20;;;;;;;30.97;42.34;99480.19;4813218;29;20134;-83
2023/08/06 08:18:45;;;;;;;0.20;0.20;;;;;;;30.78;42.66;99481.00;4808369;29;20575;-80
2023/08/06 08:21:12;;;;;;;0.20;0.20;;;;;;;30.86;42.94;99482.78;4812419;29;20068;-83
2023/08/06 08:23:41;;;;;;;0.20;0.20;;;;;;;30.87;43.26;99471.28;4811634;29;20100;-80
2023/08/06 08:26:11;;;;;;;0.20;0.20;;;;;;;31.26;42.83;99462.00;4805310;29;20135;-80
2023/08/06 08:28:39;;;;;;;0.20;0.20;;;;;;;31.79;41.12;99464.84;4805413;29;20460;-79
2023/08/06 08:31:09;;;;;;;0.20;0.20;;;;;;;32.25;40.88;99459.13;4805680;29;20074;-79
2023/08/06 08:33:37;;;;;;;0.20;0.20;;;;;;;32.83;39.71;99451.44;4805101;29;20055;-81
2023/08/06 08:36:04;;;;;;;0.20;0.20;;;;;;;33.08;39.18;99454.50;4805360;29;20074;-81
2023/08/06 08:38:32;;;;;;;0.20;0.20;;;;;;;33.16;38.56;99447.78;4804097;29;20057;-81
2023/08/06 08:41:01;;;;;;;0.20;0.20;;;;;;;33.33;38.72;99444.31;4804388;29;20110;-79
2023/08/06 08:43:42;;;;;;;0.20;0.20;;;;;;;33.61;38.37;99446.56;4804015;29;20066;-81
2023/08/06 08:46:12;;;;;;;0.20;0.20;;;;;;;33.58;37.60;99438.16;4805166;29;20142;-80
2023/08/06 08:48:39;;;;;;;0.20;0.20;;;;;;;33.43;37.59;99445.59;4787866;29;20054;-79
2023/08/06 08:51:08;;;;;;;0.20;0.20;;;;;;;33.72;38.18;99451.41;4789449;29;20518;-80
2023/08/06 08:53:38;;;;;;;0.20;0.20;;;;;;;34.22;36.98;99448.91;4789155;29;20058;-80
2023/08/06 08:56:05;;;;;;;0.20;0.20;;;;;;;34.56;36.14;99455.03;4789111;29;20051;-80
2023/08/06 08:58:32;;;;;;;0.20;0.20;;;;;;;34.11;37.02;99448.88;4788976;29;20477;-79
2023/08/06 09:01:00;;;;;;;0.20;0.20;;;;;;;34.17;37.22;99435.28;4821115;29;20073;-80
2023/08/06 09:03:27;;;;;;;0.20;0.20;;;;;;;34.40;36.49;99444.19;4822904;29;20086;-80
2023/08/06 09:05:56;;;;;;;0.20;0.20;;;;;;;34.37;37.21;99438.59;4821978;29;20054;-78
2023/08/06 09:08:30;;;;;;;0.20;0.20;;;;;;;34.28;36.42;99444.53;4823027;29;20077;-80
2023/08/06 09:10:58;;;;;;;0.20;0.20;;;;;;;34.42;36.06;99447.41;4823064;29;20054;-81
2023/08/06 09:13:25;;;;;;;0.20;0.20;;;;;;;34.71;36.16;99441.88;4806308;29;20126;-80
2023/08/06 09:15:52;;;;;;;0.20;0.20;;;;;;;35.39;35.16;99427.94;4823125;29;20061;-79
2023/08/06 09:18:29;;;;;;;0.20;0.20;;;;;;;35.69;34.30;99438.75;4822917;29;20050;-78
2023/08/06 09:20:58;;;;;;;0.20;0.20;;;;;;;35.94;33.60;99444.31;4822094;29;20054;-79
2023/08/06 09:23:33;;;;;;;0.20;0.20;;;;;;;35.53;33.98;99446.78;4821642;29;20058;-79
2023/08/06 09:26:02;;;;;;;0.20;0.20;;;;;;;35.67;34.16;99443.97;4822736;29;20050;-79
2023/08/06 09:28:41;;;;;;;0.20;0.20;;;;;;;35.84;34.41;99427.50;4822724;29;20054;-79
2023/08/06 09:31:14;;;;;;;0.20;0.20;;;;;;;36.03;33.75;99425.03;4822916;29;20111;-78
2023/08/06 09:33:41;;;;;;;0.20;0.20;;;;;;;36.45;33.29;99416.81;4822910;29;20399;-80
2023/08/06 09:36:11;;;;;;;0.10;0.10;;;;;;;36.69;33.21;99425.53;4820679;29;20129;-81
2023/08/06 09:38:42;;;;;;;0.30;0.30;;;;;;;37.01;32.65;99420.50;4822473;29;20054;-80
2023/08/06 09:41:09;;;;;;;0.10;0.10;;;;;;;36.86;32.76;99421.81;4822656;29;20058;-80
2023/08/06 09:43:42;;;;;;;0.30;0.30;;;;;;;37.15;32.26;99421.63;4821330;29;20058;-79
2023/08/06 09:46:18;;;;;;;0.30;0.30;;;;;;;37.68;31.13;99411.91;4823302;29;20095;-82
2023/08/06 09:48:46;;;;;;;0.20;0.20;;;;;;;37.50;31.22;99420.50;4821976;29;20061;-79
2023/08/06 09:51:14;;;;;;;0.20;0.20;;;;;;;37.11;31.58;99418.84;4822890;29;20489;-79
2023/08/06 09:53:42;;;;;;;0.30;0.30;;;;;;;36.09;33.21;99405.78;4820566;29;20061;-81
2023/08/06 09:56:14;;;;;;;0.30;0.30;;;;;;;36.41;32.16;99405.63;4802451;29;20115;-81
2023/08/06 09:58:44;;;;;;;0.30;0.30;;;;;;;36.55;31.50;99401.91;4810418;29;20096;-82
2023/08/06 10:01:16;;;;;;;0.30;0.30;;;;;;;36.70;31.53;99399.06;4834485;29;20101;-80
2023/08/06 10:03:44;;;;;;;0.10;0.10;;;;;;;36.65;32.38;99398.25;4833835;29;20243;-81
2023/08/06 10:06:14;;;;;;;0.30;0.30;;;;;;;36.77;32.38;99393.38;4835228;29;20070;-81
2023/08/06 10:08:44;;;;;;;0.30;0.30;;;;;;;37.66;31.35;99386.19;4825237;29;20054;-83
2023/08/06 10:11:12;;;;;;;0.30;0.30;;;;;;;37.98;30.49;99379.38;4827731;29;20088;-81
2023/08/06 10:13:40;;;;;;;0.30;0.30;;;;;;;38.09;30.26;99392.13;4831691;29;20058;-81
2023/08/06 10:16:09;;;;;;;0.22;0.22;;;;;;;37.97;30.40;99389.84;4821689;29;20116;-80
2023/08/06 10:18:38;;;;;;;0.22;0.22;;;;;;;37.63;30.80;99381.38;4832131;29;20054;-81
2023/08/06 10:21:09;;;;;;;0.10;0.10;;;;;;;36.68;32.76;99376.97;4830117;29;20145;-81
2023/08/06 10:23:38;;;;;;;0.30;0.30;;;;;;;36.72;32.36;99374.13;4833828;29;20051;-81
2023/08/06 10:26:05;;;;;;;0.30;0.30;;;;;;;37.28;31.83;99383.34;4823345;29;20068;-81
2023/08/06 10:28:39;;;;;;;0.30;0.30;;;;;;;37.47;30.96;99379.91;4828422;29;20058;-81
2023/08/06 10:31:06;;;;;;;0.30;0.30;;;;;;;37.65;30.89;99362.06;4820964;29;20058;-82
2023/08/06 10:33:46;;;;;;;0.30;0.30;;;;;;;38.47;29.80;99372.31;4824990;29;20083;-81
2023/08/06 10:36:15;;;;;;;0.30;0.30;;;;;;;38.80;29.69;99366.97;4830063;29;20145;-82
2023/08/06 10:38:49;;;;;;;0.10;0.10;;;;;;;38.25;30.49;99376.63;4820888;29;20058;-81
2023/08/06 10:41:43;;;;;;;0.10;0.10;;;;;;;36.52;32.69;99371.03;4822450;29;20078;-82
2023/08/06 10:44:12;;;;;;;0.10;0.10;;;;;;;35.64;33.45;99371.81;4821243;29;20059;-83
2023/08/06 10:46:41;;;;;;;0.30;0.30;;;;;;;35.07;34.70;99363.41;4822796;29;20493;-81
2023/08/06 10:49:11;;;;;;;0.10;0.10;;;;;;;36.20;33.20;99363.59;4828889;29;20057;-83
2023/08/06 10:51:50;;;;;;;0.10;0.10;;;;;;;35.16;34.90;99363.84;4836489;29;20065;-82
2023/08/06 10:54:18;;;;;;;0.30;0.30;;;;;;;34.75;35.34;99364.22;4837395;29;20061;-82
2023/08/06 10:56:47;;;;;;;0.10;0.10;;;;;;;35.12;34.31;99357.44;4824950;29;20119;-82
2023/08/06 10:59:15;;;;;;;0.30;0.30;;;;;;;35.75;34.07;99361.34;4835510;29;20058;-83
2023/08/06 11:01:45;;;;;;;0.20;0.20;;;;;;;36.81;31.86;99349.94;4821608;29;20141;-81
2023/08/06 11:04:17;;;;;;;0.30;0.30;;;;;;;36.64;32.31;99356.50;4808510;29;20075;-82
2023/08/06 11:06:53;;;;;;;0.30;0.30;;;;;;;36.99;32.09;99361.03;4812628;29;20498;-82
2023/08/06 11:12:18;;;;;;;0.30;0.30;;;;;;;38.76;29.67;99366.22;4811835;29;20150;-80
2023/08/06 11:14:51;;;;;;;0.30;0.30;;;;;;;39.71;28.26;99364.97;4805566;29;20173;-81
2023/08/06 11:17:20;;;;;;;0.10;0.10;;;;;;;38.80;28.64;99359.31;4808352;29;20055;-81
2023/08/06 11:19:47;;;;;;;0.20;0.20;;;;;;;39.08;28.69;99370.56;4810107;29;20069;-81
2023/08/06 11:22:16;;;;;;;0.30;0.30;;;;;;;39.57;28.13;99346.28;4807048;29;20127;-81
2023/08/06 11:24:43;;;;;;;0.30;0.30;;;;;;;39.94;27.40;99361.31;4806750;29;20415;-82
2023/08/06 11:27:14;;;;;;;0.30;0.30;;;;;;;39.54;28.41;99368.94;4806758;29;20058;-82
2023/08/06 11:29:42;;;;;;;0.30;0.30;;;;;;;39.36;29.14;99358.00;4812163;29;20115;-80
2023/08/06 11:32:09;;;;;;;0.30;0.30;;;;;;;39.43;28.33;99355.84;4820708;29;20050;-82
2023/08/06 11:34:37;;;;;;;0.25;0.25;;;;;;;38.95;29.16;99359.91;4824270;29;20522;-81
2023/08/06 11:37:07;;;;;;;0.30;0.30;;;;;;;39.43;28.51;99347.38;4824692;29;20046;-80
2023/08/06 11:39:38;;;;;;;;;;;;;;;39.69;28.39;99341.22;4811424;29;20058;-81
2023/08/06 11:42:08;;;;;;;0.22;0.22;;;;;;;39.96;27.80;99347.53;4824788;29;20128;-80
2023/08/06 11:44:35;;;;;;;0.20;0.20;;;;;;;39.67;27.48;99350.91;4793414;29;20058;-81